createdAt,value
2022-11-03T00:00:14.617Z,68.1
2022-11-03T00:01:58.390Z,68.1
2022-11-03T00:03:42.006Z,68
2022-11-03T00:05:25.708Z,68.1
2022-11-03T00:07:09.398Z,68.1
2022-11-03T00:08:53.101Z,68.1
2022-11-03T00:10:36.812Z,68.1
2022-11-03T00:12:20.502Z,68.1
2022-11-03T00:14:04.201Z,68.1
2022-11-03T00:15:47.890Z,68
2022-11-03T00:17:31.607Z,68
2022-11-03T00:19:15.289Z,68
2022-11-03T00:20:59.006Z,68.1
2022-11-03T00:22:42.712Z,68
2022-11-03T00:24:26.460Z,68
2022-11-03T00:26:10.094Z,68.1
2022-11-03T00:27:53.804Z,68
2022-11-03T00:29:37.515Z,68
2022-11-03T00:31:21.253Z,67.9
2022-11-03T00:33:04.904Z,67.9
2022-11-03T00:34:48.607Z,67.9
2022-11-03T00:36:32.338Z,67.9
2022-11-03T00:38:16.012Z,68
2022-11-03T00:39:59.703Z,67.9
2022-11-03T00:41:43.433Z,67.9
2022-11-03T00:43:29.226Z,67.9
2022-11-03T00:45:10.848Z,67.9
2022-11-03T00:46:54.506Z,67.8
2022-11-03T00:48:38.235Z,67.8
2022-11-03T00:50:21.916Z,67.8
2022-11-03T00:52:05.704Z,67.8
2022-11-03T00:53:49.395Z,67.8
2022-11-03T00:55:33.040Z,67.8
2022-11-03T00:57:16.727Z,67.8
2022-11-03T00:59:00.527Z,67.8
2022-11-03T01:00:44.147Z,67.8
2022-11-03T01:02:27.855Z,67.8
2022-11-03T01:04:11.541Z,67.8
2022-11-03T01:05:55.254Z,67.7
2022-11-03T01:07:38.969Z,67.7
2022-11-03T01:09:22.665Z,67.8
2022-11-03T01:11:06.389Z,67.8
2022-11-03T01:12:50.111Z,67.7
2022-11-03T01:14:33.795Z,67.7
2022-11-03T01:16:17.492Z,67.7
2022-11-03T01:18:01.202Z,67.7
2022-11-03T01:19:44.917Z,67.7
2022-11-03T01:21:28.581Z,67.7
2022-11-03T01:23:12.300Z,67.6
2022-11-03T01:24:56.540Z,67.7
2022-11-03T01:26:39.698Z,67.6
2022-11-03T01:28:23.425Z,67.6
2022-11-03T01:30:07.194Z,67.6
2022-11-03T01:31:50.817Z,67.6
2022-11-03T01:33:34.520Z,67.6
2022-11-03T01:35:18.214Z,67.6
2022-11-03T01:37:01.902Z,67.5
2022-11-03T01:38:45.610Z,67.5
2022-11-03T01:40:29.325Z,67.5
2022-11-03T01:42:13.044Z,67.6
2022-11-03T01:43:56.712Z,67.5
2022-11-03T01:45:40.428Z,67.6
2022-11-03T01:47:24.134Z,67.5
2022-11-03T01:49:07.806Z,67.5
2022-11-03T01:52:35.213Z,67.4
2022-11-03T01:54:18.928Z,67.5
2022-11-03T01:56:02.630Z,67.5
2022-11-03T01:57:46.368Z,67.5
2022-11-03T01:59:30.024Z,67.4
2022-11-03T02:01:13.750Z,67.4
2022-11-03T02:02:57.431Z,67.4
2022-11-03T02:04:41.141Z,67.4
2022-11-03T02:06:24.836Z,67.4
2022-11-03T02:08:08.541Z,67.3
2022-11-03T02:09:52.242Z,67.3
2022-11-03T02:11:35.974Z,67.3
2022-11-03T02:13:19.632Z,67.3
2022-11-03T02:15:03.359Z,67.3
2022-11-03T02:16:47.037Z,67.3
2022-11-03T02:18:30.746Z,67.3
2022-11-03T02:20:14.476Z,67.3
2022-11-03T02:21:58.140Z,67.2
2022-11-03T02:23:41.837Z,67.2
2022-11-03T02:25:25.570Z,67.3
2022-11-03T02:27:09.245Z,67.3
2022-11-03T02:28:52.962Z,67.3
2022-11-03T02:30:36.651Z,67.2
2022-11-03T02:32:20.371Z,67.3
2022-11-03T02:34:04.059Z,67.3
2022-11-03T02:35:47.751Z,67.3
2022-11-03T02:37:31.461Z,67.2
2022-11-03T02:39:15.152Z,67.2
2022-11-03T02:40:58.861Z,67.2
2022-11-03T02:42:42.608Z,67.2
2022-11-03T02:44:26.268Z,67.2
2022-11-03T02:46:10.021Z,67.2
2022-11-03T02:47:53.673Z,67.2
2022-11-03T02:49:37.439Z,67.2
2022-11-03T02:51:21.083Z,67.1
2022-11-03T02:53:04.801Z,67.1
2022-11-03T02:54:48.520Z,67.2
2022-11-03T02:56:32.192Z,67.1
2022-11-03T02:58:15.907Z,67.1
2022-11-03T02:59:59.589Z,67.1
2022-11-03T03:01:43.308Z,67.1
2022-11-03T03:03:27.012Z,67.1
2022-11-03T03:05:10.709Z,67.2
2022-11-03T03:08:38.126Z,67.2
2022-11-03T03:10:21.823Z,67.1
2022-11-03T03:12:05.526Z,67.2
2022-11-03T03:13:49.226Z,67.1
2022-11-03T03:15:32.931Z,67.1
2022-11-03T03:17:16.623Z,67.1
2022-11-03T03:19:00.327Z,67.1
2022-11-03T03:20:44.028Z,67.1
2022-11-03T03:22:27.748Z,67.1
2022-11-03T03:24:11.468Z,67
2022-11-03T03:25:55.188Z,67
2022-11-03T03:27:38.887Z,67
2022-11-03T03:29:22.563Z,67
2022-11-03T03:31:06.247Z,67
2022-11-03T03:32:49.964Z,67
2022-11-03T03:34:33.647Z,67
2022-11-03T03:36:17.349Z,67
2022-11-03T03:38:01.063Z,67
2022-11-03T03:39:44.800Z,67
2022-11-03T03:41:28.494Z,67
2022-11-03T03:43:12.212Z,67
2022-11-03T03:44:55.902Z,67
2022-11-03T03:46:39.604Z,67
2022-11-03T03:48:23.293Z,67
2022-11-03T03:50:06.967Z,66.9
2022-11-03T03:51:50.759Z,66.9
2022-11-03T03:53:34.426Z,66.9
2022-11-03T03:55:18.087Z,67
2022-11-03T03:57:01.799Z,67
2022-11-03T03:58:45.514Z,66.9
2022-11-03T04:00:29.189Z,66.9
2022-11-03T04:02:12.915Z,66.9
2022-11-03T04:03:56.621Z,66.9
2022-11-03T04:05:40.301Z,66.9
2022-11-03T04:07:24.024Z,66.9
2022-11-03T04:09:07.696Z,66.9
2022-11-03T04:10:51.405Z,66.9
2022-11-03T04:12:35.096Z,66.9
2022-11-03T04:14:18.802Z,66.9
2022-11-03T04:16:02.552Z,66.8
2022-11-03T04:17:46.211Z,66.8
2022-11-03T04:19:29.913Z,66.8
2022-11-03T04:21:13.620Z,66.7
2022-11-03T04:22:57.304Z,66.8
2022-11-03T04:24:41.023Z,66.8
2022-11-03T04:26:24.770Z,66.8
2022-11-03T04:28:08.420Z,66.8
2022-11-03T04:29:52.115Z,66.8
2022-11-03T04:31:35.813Z,66.8
2022-11-03T04:33:19.519Z,66.8
2022-11-03T04:35:03.212Z,66.8
2022-11-03T04:36:46.949Z,66.8
2022-11-03T04:38:30.660Z,66.8
2022-11-03T04:40:14.308Z,66.8
2022-11-03T04:41:58.027Z,66.8
2022-11-03T04:43:41.697Z,66.8
2022-11-03T04:45:25.415Z,66.8
2022-11-03T04:47:09.120Z,66.8
2022-11-03T04:48:52.822Z,66.7
2022-11-03T04:50:36.505Z,66.8
2022-11-03T04:54:03.932Z,66.7
2022-11-03T04:55:47.623Z,66.7
2022-11-03T04:57:31.349Z,66.7
2022-11-03T04:59:15.026Z,66.7
2022-11-03T05:00:58.718Z,66.6
2022-11-03T05:02:42.435Z,66.6
2022-11-03T05:04:26.152Z,66.6
2022-11-03T05:06:09.871Z,66.6
2022-11-03T05:07:53.543Z,66.6
2022-11-03T05:09:37.237Z,66.6
2022-11-03T05:11:20.947Z,66.6
2022-11-03T05:13:04.650Z,66.6
2022-11-03T05:14:48.354Z,66.6
2022-11-03T05:16:32.093Z,66.6
2022-11-03T05:18:15.753Z,66.5
2022-11-03T05:19:59.494Z,66.5
2022-11-03T05:21:43.162Z,66.5
2022-11-03T05:23:26.863Z,66.6
2022-11-03T05:25:10.567Z,66.5
2022-11-03T05:26:54.280Z,66.5
2022-11-03T05:28:37.972Z,66.5
2022-11-03T05:30:21.699Z,66.5
2022-11-03T05:32:05.383Z,66.5
2022-11-03T05:33:49.102Z,66.5
2022-11-03T05:35:32.792Z,66.5
2022-11-03T05:37:16.491Z,66.5
2022-11-03T05:39:00.197Z,66.5
2022-11-03T05:40:43.908Z,66.4
2022-11-03T05:42:27.604Z,66.4
2022-11-03T05:44:11.326Z,66.5
2022-11-03T05:45:55.032Z,66.4
2022-11-03T05:47:38.763Z,66.5
2022-11-03T05:49:22.401Z,66.5
2022-11-03T05:51:06.223Z,66.4
2022-11-03T05:52:49.840Z,66.4
2022-11-03T05:54:33.530Z,66.5
2022-11-03T05:56:17.234Z,66.5
2022-11-03T05:58:00.968Z,66.4
2022-11-03T05:59:44.723Z,66.4
2022-11-03T06:01:28.340Z,66.5
2022-11-03T06:03:12.049Z,66.4
2022-11-03T06:04:55.797Z,66.5
2022-11-03T06:06:39.527Z,66.5
2022-11-03T06:08:23.153Z,66.4
2022-11-03T06:10:06.855Z,66.4
2022-11-03T06:11:50.590Z,66.4
2022-11-03T06:13:34.300Z,66.4
2022-11-03T06:15:17.964Z,66.4
2022-11-03T06:17:01.742Z,66.4
2022-11-03T06:18:45.370Z,66.4
2022-11-03T06:20:29.065Z,66.4
2022-11-03T06:22:12.752Z,66.4
2022-11-03T06:23:56.532Z,66.4
2022-11-03T06:25:40.167Z,66.3
2022-11-03T06:27:23.886Z,66.3
2022-11-03T06:29:07.563Z,66.3
2022-11-03T06:30:51.272Z,66.3
2022-11-03T06:32:35.001Z,66.3
2022-11-03T06:34:18.668Z,66.3
2022-11-03T06:36:02.397Z,66.2
2022-11-03T06:37:46.065Z,66.3
2022-11-03T06:39:29.762Z,66.3
2022-11-03T06:41:13.464Z,66.2
2022-11-03T06:42:57.190Z,66.3
2022-11-03T06:44:40.911Z,66.3
2022-11-03T06:46:24.568Z,66.3
2022-11-03T06:48:08.288Z,66.4
2022-11-03T06:49:51.985Z,66.3
2022-11-03T06:51:35.707Z,66.3
2022-11-03T06:53:19.387Z,66.2
2022-11-03T06:55:03.086Z,66.2
2022-11-03T06:56:46.800Z,66.1
2022-11-03T06:58:30.492Z,66
2022-11-03T07:00:14.211Z,65.9
2022-11-03T07:01:57.918Z,65.9
2022-11-03T07:03:41.631Z,65.8
2022-11-03T07:05:25.314Z,65.8
2022-11-03T07:07:09.015Z,65.7
2022-11-03T07:08:52.782Z,65.7
2022-11-03T07:10:36.431Z,65.6
2022-11-03T07:12:20.160Z,65.6
2022-11-03T07:14:03.820Z,65.5
2022-11-03T07:15:47.541Z,65.5
2022-11-03T07:17:31.236Z,65.5
2022-11-03T07:19:14.930Z,65.5
2022-11-03T07:20:58.629Z,65.4
2022-11-03T07:22:42.378Z,65.4
2022-11-03T07:24:26.045Z,65.4
2022-11-03T07:26:09.756Z,65.4
2022-11-03T07:27:53.473Z,65.4
2022-11-03T07:29:37.172Z,65.3
2022-11-03T07:31:20.863Z,65.5
2022-11-03T07:33:04.610Z,65.6
2022-11-03T07:34:48.281Z,66
2022-11-03T07:36:31.998Z,66.3
2022-11-03T07:38:15.722Z,66.5
2022-11-03T07:39:59.382Z,66.5
2022-11-03T07:41:43.082Z,66.4
2022-11-03T07:43:26.826Z,66.3
2022-11-03T07:45:10.563Z,66.3
2022-11-03T07:46:54.230Z,66.7
2022-11-03T07:48:37.907Z,66.8
2022-11-03T07:50:21.632Z,66.9
2022-11-03T07:52:05.305Z,66.8
2022-11-03T07:53:49.002Z,66.6
2022-11-03T07:55:32.784Z,66.5
2022-11-03T07:57:16.472Z,66.2
2022-11-03T07:59:00.119Z,65.4
2022-11-03T08:00:43.821Z,65.1
2022-11-03T08:02:27.522Z,65
2022-11-03T08:04:11.293Z,64.9
2022-11-03T08:05:55.013Z,64.9
2022-11-03T08:07:38.643Z,64.9
2022-11-03T08:09:22.328Z,64.8
2022-11-03T08:12:49.775Z,64.6
2022-11-03T08:14:33.450Z,64.6
2022-11-03T08:16:17.158Z,64.5
2022-11-03T08:18:00.849Z,64.6
2022-11-03T08:19:44.554Z,64.5
2022-11-03T08:21:28.304Z,64.5
2022-11-03T08:23:12.045Z,64.4
2022-11-03T08:24:55.674Z,64.4
2022-11-03T08:26:39.378Z,64.3
2022-11-03T08:28:23.077Z,64.2
2022-11-03T08:30:06.776Z,64.2
2022-11-03T08:31:50.472Z,64.2
2022-11-03T08:33:34.181Z,64
2022-11-03T08:35:18.010Z,64
2022-11-03T08:37:01.610Z,63.9
2022-11-03T08:38:45.313Z,63.8
2022-11-03T08:40:29.015Z,63.6
2022-11-03T08:42:12.692Z,63.8
2022-11-03T08:43:56.410Z,63.7
2022-11-03T08:45:40.119Z,63.5
2022-11-03T08:47:23.789Z,63.5
2022-11-03T08:49:07.507Z,63.4
2022-11-03T08:50:51.199Z,63.3
2022-11-03T08:52:34.896Z,63.4
2022-11-03T08:54:18.609Z,63.2
2022-11-03T08:56:02.289Z,63
2022-11-03T08:57:46.018Z,62.9
2022-11-03T08:59:29.795Z,62.9
2022-11-03T09:01:13.462Z,62.8
2022-11-03T09:02:57.101Z,62.8
2022-11-03T09:04:40.796Z,62.7
2022-11-03T09:06:24.509Z,62.6
2022-11-03T09:08:08.214Z,62.6
2022-11-03T09:09:51.888Z,62.7
2022-11-03T09:11:35.610Z,62.7
2022-11-03T09:13:19.292Z,62.6
2022-11-03T09:15:02.993Z,62.7
2022-11-03T09:16:46.688Z,62.7
2022-11-03T09:18:30.401Z,62.8
2022-11-03T09:20:14.120Z,62.8
2022-11-03T09:21:57.802Z,62.9
2022-11-03T09:23:41.502Z,62.9
2022-11-03T09:25:25.204Z,62.9
2022-11-03T09:27:08.912Z,62.9
2022-11-03T09:28:52.597Z,62.9
2022-11-03T09:30:36.297Z,62.9
2022-11-03T09:32:20.030Z,62.8
2022-11-03T09:34:03.753Z,62.8
2022-11-03T09:35:47.397Z,62.8
2022-11-03T09:37:31.106Z,62.8
2022-11-03T09:39:14.848Z,62.8
2022-11-03T09:40:58.514Z,62.8
2022-11-03T09:42:42.200Z,62.8
2022-11-03T09:44:26.051Z,62.8
2022-11-03T09:46:09.767Z,62.7
2022-11-03T09:47:53.313Z,62.7
2022-11-03T09:49:37.070Z,62.6
2022-11-03T09:51:20.830Z,62.7
2022-11-03T09:53:04.579Z,62.6
2022-11-03T09:54:48.130Z,62.6
2022-11-03T09:58:15.518Z,62.6
2022-11-03T09:59:59.225Z,62.5
2022-11-03T10:01:42.927Z,62.5
2022-11-03T10:03:26.665Z,62.4
2022-11-03T10:05:10.341Z,62.5
2022-11-03T10:06:54.018Z,62.4
2022-11-03T10:08:37.737Z,62.4
2022-11-03T10:10:21.410Z,62.4
2022-11-03T10:12:05.138Z,62.3
2022-11-03T10:13:48.845Z,62.4
2022-11-03T10:15:32.551Z,62.4
2022-11-03T10:17:16.256Z,62.4
2022-11-03T10:18:59.937Z,62.4
2022-11-03T10:20:43.650Z,62.4
2022-11-03T10:22:27.363Z,62.5
2022-11-03T10:24:11.034Z,62.8
2022-11-03T10:25:54.753Z,63
2022-11-03T10:27:38.512Z,63.1
2022-11-03T10:29:22.158Z,63.4
2022-11-03T10:31:05.843Z,63.5
2022-11-03T10:32:49.561Z,63.7
2022-11-03T10:34:33.262Z,63.6
2022-11-03T10:36:16.998Z,63.5
2022-11-03T10:38:00.672Z,63.5
2022-11-03T10:41:28.103Z,63.2
2022-11-03T10:43:11.811Z,63.2
2022-11-03T10:44:55.476Z,63.5
2022-11-03T10:46:39.185Z,63.5
2022-11-03T10:48:22.878Z,63.5
2022-11-03T10:50:06.647Z,63.5
2022-11-03T10:51:50.294Z,63.5
2022-11-03T10:53:33.991Z,63.6
2022-11-03T10:55:17.730Z,63.5
2022-11-03T10:57:01.388Z,63.6
2022-11-03T10:58:45.112Z,63.6
2022-11-03T11:00:28.811Z,63.6
2022-11-03T11:02:12.535Z,63.6
2022-11-03T11:03:56.209Z,63.5
2022-11-03T11:05:39.926Z,63.5
2022-11-03T11:07:23.625Z,63.5
2022-11-03T11:09:07.309Z,63.5
2022-11-03T11:10:51.033Z,63.2
2022-11-03T11:12:34.716Z,63.2
2022-11-03T11:14:18.425Z,63.3
2022-11-03T11:16:02.147Z,63.1
2022-11-03T11:17:45.848Z,63.2
2022-11-03T11:19:29.532Z,63.2
2022-11-03T11:21:13.235Z,63.2
2022-11-03T11:22:56.928Z,63.3
2022-11-03T11:24:40.649Z,63.2
2022-11-03T11:26:24.352Z,63.2
2022-11-03T11:28:08.059Z,63.2
2022-11-03T11:29:51.746Z,63.1
2022-11-03T11:31:35.457Z,63.1
2022-11-03T11:33:19.173Z,63.1
2022-11-03T11:35:02.869Z,63.1
2022-11-03T11:36:46.569Z,63.1
2022-11-03T11:38:30.275Z,63.1
2022-11-03T11:40:14.015Z,63
2022-11-03T11:41:57.675Z,63
2022-11-03T11:43:41.378Z,63
2022-11-03T11:45:25.078Z,63
2022-11-03T11:47:08.787Z,63
2022-11-03T11:48:52.481Z,63
2022-11-03T11:50:36.226Z,63.2
2022-11-03T11:54:03.646Z,63.3
2022-11-03T11:55:47.300Z,63.3
2022-11-03T11:57:30.995Z,63.2
2022-11-03T11:59:14.700Z,63.2
2022-11-03T12:00:58.400Z,62.8
2022-11-03T12:02:42.106Z,63
2022-11-03T12:04:25.808Z,63
2022-11-03T12:06:09.511Z,63.1
2022-11-03T12:07:53.191Z,63.1
2022-11-03T12:09:36.904Z,63.1
2022-11-03T12:11:20.636Z,63.1
2022-11-03T12:13:04.308Z,63.1
2022-11-03T12:14:48.017Z,63.1
2022-11-03T12:16:31.729Z,63.1
2022-11-03T12:18:15.413Z,63.1
2022-11-03T12:19:59.126Z,63.1
2022-11-03T12:21:42.822Z,63.1
2022-11-03T12:23:26.787Z,63.1
2022-11-03T12:25:10.243Z,63.1
2022-11-03T12:26:53.925Z,63.1
2022-11-03T12:28:37.632Z,63.2
2022-11-03T12:30:21.331Z,63.2
2022-11-03T12:32:05.070Z,63.2
2022-11-03T12:33:48.736Z,63.2
2022-11-03T12:35:32.450Z,63.3
2022-11-03T12:37:16.148Z,63.3
2022-11-03T12:38:59.912Z,63.3
2022-11-03T12:40:43.532Z,63.4
2022-11-03T12:42:27.230Z,63.4
2022-11-03T12:44:10.950Z,63.4
2022-11-03T12:45:54.641Z,63.5
2022-11-03T12:47:38.357Z,63.5
2022-11-03T12:49:22.057Z,63.5
2022-11-03T12:51:05.758Z,63.6
2022-11-03T12:52:49.442Z,63.6
2022-11-03T12:54:33.153Z,63.7
2022-11-03T12:56:16.839Z,63.8
2022-11-03T12:58:00.556Z,63.8
2022-11-03T12:59:44.247Z,63.8
2022-11-03T13:01:27.946Z,63.8
2022-11-03T13:03:11.733Z,63.8
2022-11-03T13:04:55.358Z,63.8
2022-11-03T13:06:39.056Z,63.9
2022-11-03T13:08:22.768Z,63.9
2022-11-03T13:10:06.462Z,63.9
2022-11-03T13:11:50.165Z,64
2022-11-03T13:13:33.842Z,64
2022-11-03T13:17:01.246Z,64
2022-11-03T13:18:44.961Z,64
2022-11-03T13:20:28.717Z,64
2022-11-03T13:22:12.382Z,63.9
2022-11-03T13:23:56.069Z,63.9
2022-11-03T13:25:39.757Z,63.9
2022-11-03T13:27:23.490Z,63.9
2022-11-03T13:29:07.150Z,63.9
2022-11-03T13:30:50.848Z,63.9
2022-11-03T13:32:34.559Z,63.9
2022-11-03T13:34:18.257Z,63.9
2022-11-03T13:36:01.971Z,63.9
2022-11-03T13:37:45.683Z,63.7
2022-11-03T13:39:29.366Z,63.7
2022-11-03T13:41:13.089Z,63.8
2022-11-03T13:42:56.776Z,63.8
2022-11-03T13:44:40.554Z,63.9
2022-11-03T13:46:24.172Z,63.9
2022-11-03T13:48:07.893Z,64
2022-11-03T13:49:51.679Z,64
2022-11-03T13:51:35.294Z,64.2
2022-11-03T13:53:19.132Z,64.3
2022-11-03T13:55:02.680Z,64.3
2022-11-03T13:56:46.437Z,64.4
2022-11-03T13:58:30.104Z,64.7
2022-11-03T14:00:13.827Z,64.6
2022-11-03T14:01:57.617Z,64.4
2022-11-03T14:03:41.353Z,64.3
2022-11-03T14:05:25.022Z,64.3
2022-11-03T14:07:08.675Z,64.3
2022-11-03T14:08:52.368Z,64.3
2022-11-03T14:10:36.122Z,64.3
2022-11-03T14:12:19.819Z,64.4
2022-11-03T14:14:03.515Z,64.5
2022-11-03T14:15:47.176Z,64.5
2022-11-03T14:17:30.829Z,64.5
2022-11-03T14:19:14.571Z,64.5
2022-11-03T14:20:58.370Z,64.6
2022-11-03T14:22:42.071Z,64.6
2022-11-03T14:24:25.693Z,64.6
2022-11-03T14:26:09.454Z,64.7
2022-11-03T14:27:53.167Z,64.7
2022-11-03T14:29:36.849Z,64.7
2022-11-03T14:31:20.475Z,64.8
2022-11-03T14:33:04.186Z,64.9
2022-11-03T14:34:47.881Z,64.9
2022-11-03T14:36:31.593Z,65
2022-11-03T14:38:15.407Z,65
2022-11-03T14:39:58.970Z,65.1
2022-11-03T14:41:42.677Z,65.1
2022-11-03T14:43:26.387Z,65.2
2022-11-03T14:45:10.114Z,65.2
2022-11-03T14:46:53.770Z,65.2
2022-11-03T14:48:37.481Z,65.3
2022-11-03T14:50:21.185Z,65.3
2022-11-03T14:52:04.884Z,65.3
2022-11-03T14:53:48.592Z,65.4
2022-11-03T14:55:32.301Z,65.3
2022-11-03T14:57:16.008Z,65.4
2022-11-03T14:58:59.690Z,65.4
2022-11-03T15:00:43.404Z,65.5
2022-11-03T15:02:27.097Z,65.5
2022-11-03T15:04:10.841Z,65.5
2022-11-03T15:05:54.487Z,65.5
2022-11-03T15:07:38.204Z,65.6
2022-11-03T15:09:21.947Z,65.6
2022-11-03T15:11:05.614Z,65.7
2022-11-03T15:12:49.302Z,65.7
2022-11-03T15:14:32.997Z,65.7
2022-11-03T15:16:16.704Z,65.9
2022-11-03T15:18:00.387Z,65.8
2022-11-03T15:19:44.149Z,66
2022-11-03T15:21:27.813Z,66.1
2022-11-03T15:23:11.505Z,66.5
2022-11-03T15:24:55.212Z,66.5
2022-11-03T15:26:38.917Z,66.5
2022-11-03T15:28:22.656Z,66.6
2022-11-03T15:30:06.341Z,66.7
2022-11-03T15:31:50.055Z,66.9
2022-11-03T15:33:33.752Z,67.2
2022-11-03T15:35:17.422Z,67.4
2022-11-03T15:37:01.259Z,67.8
2022-11-03T15:38:44.839Z,67.8
2022-11-03T15:40:28.544Z,68
2022-11-03T15:42:12.247Z,68.5
2022-11-03T15:43:55.953Z,69.1
2022-11-03T15:45:39.655Z,69.5
2022-11-03T15:47:23.346Z,69.4
2022-11-03T15:49:07.073Z,69.5
2022-11-03T15:50:50.769Z,69.5
2022-11-03T15:52:34.459Z,70
2022-11-03T15:54:18.140Z,70.2
2022-11-03T15:56:01.856Z,70.6
2022-11-03T15:57:45.611Z,71
2022-11-03T15:59:29.267Z,71.4
2022-11-03T16:01:12.944Z,71.2
2022-11-03T16:02:56.654Z,71.4
2022-11-03T16:04:40.359Z,72.1
2022-11-03T16:06:24.117Z,72.6
2022-11-03T16:08:08.315Z,73.4
2022-11-03T16:09:51.459Z,73.6
2022-11-03T16:11:35.150Z,73.6
2022-11-03T16:13:18.886Z,73.3
2022-11-03T16:15:02.549Z,73.4
2022-11-03T16:16:46.259Z,73.2
2022-11-03T16:18:29.983Z,73
2022-11-03T16:20:13.674Z,72.7
2022-11-03T16:21:57.388Z,72.6
2022-11-03T16:23:41.062Z,72.3
2022-11-03T16:25:24.779Z,72.2
2022-11-03T16:27:08.478Z,72
2022-11-03T16:28:52.216Z,71.8
2022-11-03T16:30:35.871Z,71.6
2022-11-03T16:32:19.579Z,71.4
2022-11-03T16:34:03.279Z,71.3
2022-11-03T16:35:46.966Z,71.1
2022-11-03T16:37:30.672Z,71
2022-11-03T16:39:14.409Z,70.9
2022-11-03T16:40:58.107Z,70.9
2022-11-03T16:42:41.766Z,70.8
2022-11-03T16:44:25.475Z,70.6
2022-11-03T16:46:09.178Z,70.5
2022-11-03T16:47:52.909Z,70.4
2022-11-03T16:49:36.575Z,70.2
2022-11-03T16:51:20.280Z,70.1
2022-11-03T16:53:03.986Z,70
2022-11-03T16:54:47.680Z,69.9
2022-11-03T16:56:31.384Z,69.9
2022-11-03T16:58:15.106Z,69.8
2022-11-03T16:59:58.780Z,69.8
2022-11-03T17:01:42.478Z,69.8
2022-11-03T17:03:26.187Z,69.7
2022-11-03T17:05:09.883Z,69.6
2022-11-03T17:06:53.606Z,69.4
2022-11-03T17:08:42.266Z,69.4
2022-11-03T17:10:20.981Z,69.3
2022-11-03T17:12:04.685Z,69.3
2022-11-03T17:13:48.398Z,69.2
2022-11-03T17:15:32.104Z,69.1
2022-11-03T17:17:15.786Z,69.1
2022-11-03T17:18:59.492Z,69.1
2022-11-03T17:20:43.199Z,69
2022-11-03T17:22:26.901Z,69
2022-11-03T17:24:10.590Z,68.9
2022-11-03T17:25:54.296Z,68.9
2022-11-03T17:27:38.008Z,68.7
2022-11-03T17:29:21.704Z,66.2
2022-11-03T17:31:05.405Z,66.1
2022-11-03T17:32:49.083Z,66.6
2022-11-03T17:34:32.814Z,67
2022-11-03T17:36:16.499Z,67.2
2022-11-03T17:38:00.226Z,67.3
2022-11-03T17:39:43.991Z,67.3
2022-11-03T17:41:27.613Z,67.3
2022-11-03T17:43:11.311Z,67.3
2022-11-03T17:44:55.007Z,67.4
2022-11-03T17:46:38.712Z,67.4
2022-11-03T17:48:22.418Z,67.4
2022-11-03T17:50:06.123Z,67.4
2022-11-03T17:51:49.799Z,67.4
2022-11-03T17:53:33.557Z,67.4
2022-11-03T17:55:17.248Z,67.4
2022-11-03T17:57:00.928Z,67.3
2022-11-03T17:58:44.740Z,67.4
2022-11-03T18:00:28.461Z,67.4
2022-11-03T18:02:12.045Z,67.4
2022-11-03T18:03:55.895Z,67.4
2022-11-03T18:05:39.541Z,67.4
2022-11-03T18:07:23.267Z,67.4
2022-11-03T18:09:06.963Z,67.3
2022-11-03T18:10:50.664Z,67.3
2022-11-03T18:12:34.342Z,67.3
2022-11-03T18:14:17.991Z,67.3
2022-11-03T18:16:01.626Z,67.3
2022-11-03T18:17:45.376Z,67.3
2022-11-03T18:19:29.105Z,67.2
2022-11-03T18:21:12.734Z,67.2
2022-11-03T18:22:56.450Z,67.2
2022-11-03T18:24:40.214Z,67.2
2022-11-03T18:26:23.840Z,67.2
2022-11-03T18:28:07.579Z,67.2
2022-11-03T18:29:51.351Z,67.2
2022-11-03T18:31:34.952Z,67.2
2022-11-03T18:33:18.742Z,67.2
2022-11-03T18:35:02.337Z,67.1
2022-11-03T18:36:46.081Z,67.2
2022-11-03T18:38:29.770Z,67.1
2022-11-03T18:40:13.537Z,67.1
2022-11-03T18:41:57.184Z,67.1
2022-11-03T18:43:40.871Z,67.1
2022-11-03T18:45:24.561Z,67.1
2022-11-03T18:47:08.258Z,67.1
2022-11-03T18:48:51.952Z,67.1
2022-11-03T18:50:35.689Z,67.1
2022-11-03T18:52:19.396Z,67.1
2022-11-03T18:54:03.049Z,67.1
2022-11-03T18:55:46.758Z,67
2022-11-03T18:57:30.476Z,67
2022-11-03T18:59:14.170Z,67
2022-11-03T19:00:57.967Z,67
2022-11-03T19:02:41.596Z,67
2022-11-03T19:04:25.323Z,67
2022-11-03T19:06:08.974Z,66.9
2022-11-03T19:07:52.701Z,66.9
2022-11-03T19:09:36.373Z,66.9
2022-11-03T19:11:20.071Z,66.9
2022-11-03T19:13:03.793Z,66.9
2022-11-03T19:14:47.480Z,66.9
2022-11-03T19:16:31.209Z,67
2022-11-03T19:18:14.925Z,67
2022-11-03T19:19:58.660Z,67
2022-11-03T19:21:42.284Z,66.9
2022-11-03T19:23:25.986Z,66.9
2022-11-03T19:25:09.688Z,66.9
2022-11-03T19:26:53.401Z,66.9
2022-11-03T19:28:37.138Z,66.9
2022-11-03T19:30:20.860Z,66.9
2022-11-03T19:32:04.513Z,66.9
2022-11-03T19:33:48.207Z,66.9
2022-11-03T19:35:31.948Z,66.9
2022-11-03T19:37:15.722Z,66.9
2022-11-03T19:38:59.492Z,66.9
2022-11-03T19:40:43.023Z,66.9
2022-11-03T19:42:26.726Z,66.8
2022-11-03T19:44:10.418Z,66.8
2022-11-03T19:45:54.149Z,66.8
2022-11-03T19:47:37.822Z,66.8
2022-11-03T19:49:21.555Z,66.8
2022-11-03T19:51:05.271Z,66.8
2022-11-03T19:52:48.952Z,66.8
2022-11-03T19:54:32.675Z,66.7
2022-11-03T19:56:16.382Z,66.8
2022-11-03T19:58:00.121Z,66.8
2022-11-03T19:59:43.759Z,66.8
2022-11-03T20:01:27.494Z,66.8
2022-11-03T20:03:11.162Z,66.7
2022-11-03T20:04:54.883Z,66.7
2022-11-03T20:06:38.575Z,66.6
2022-11-03T20:08:22.290Z,66.6
2022-11-03T20:10:05.994Z,66.7
2022-11-03T20:11:49.668Z,66.7
2022-11-03T20:13:33.399Z,66.8
2022-11-03T20:15:17.120Z,66.8
2022-11-03T20:17:00.782Z,66.8
2022-11-03T20:18:44.499Z,66.9
2022-11-03T20:20:28.204Z,66.9
2022-11-03T20:22:11.919Z,66.9
2022-11-03T20:23:55.633Z,67
2022-11-03T20:25:39.304Z,67
2022-11-03T20:27:23.022Z,67
2022-11-03T20:29:06.731Z,67
2022-11-03T20:30:50.425Z,67.1
2022-11-03T20:32:34.124Z,67.1
2022-11-03T20:34:17.840Z,67.1
2022-11-03T20:36:01.563Z,67.1
2022-11-03T20:37:45.258Z,67.1
2022-11-03T20:39:28.941Z,67.2
2022-11-03T20:41:12.651Z,67.2
2022-11-03T20:42:56.347Z,67.2
2022-11-03T20:44:40.065Z,67.3
2022-11-03T20:46:23.749Z,67.3
2022-11-03T20:48:07.470Z,67.3
2022-11-03T20:49:51.145Z,67.3
2022-11-03T20:51:34.861Z,67.3
2022-11-03T20:53:18.569Z,67.4
2022-11-03T20:55:02.268Z,67.4
2022-11-03T20:56:45.988Z,67.5
2022-11-03T20:58:29.680Z,67.5
2022-11-03T21:00:13.371Z,67.5
2022-11-03T21:01:57.082Z,67.5
2022-11-03T21:03:40.765Z,67.5
2022-11-03T21:05:24.517Z,67.5
2022-11-03T21:07:08.178Z,67.5
2022-11-03T21:08:51.919Z,67.5
2022-11-03T21:10:35.574Z,67.5
2022-11-03T21:12:19.277Z,67.6
2022-11-03T21:14:02.981Z,67.6
2022-11-03T21:15:46.668Z,67.6
2022-11-03T21:17:30.378Z,67.7
2022-11-03T21:19:14.122Z,67.7
2022-11-03T21:20:57.813Z,67.7
2022-11-03T21:22:41.577Z,67.6
2022-11-03T21:24:25.227Z,67.6
2022-11-03T21:26:08.904Z,67.6
2022-11-03T21:27:52.593Z,67.6
2022-11-03T21:29:36.299Z,67.6
2022-11-03T21:31:20.016Z,67.8
2022-11-03T21:33:03.786Z,67.7
2022-11-03T21:34:47.408Z,67.6
2022-11-03T21:36:31.112Z,67.7
2022-11-03T21:38:14.829Z,67.7
2022-11-03T21:39:58.549Z,67.7
2022-11-03T21:41:42.211Z,67.7
2022-11-03T21:43:25.927Z,67.7
2022-11-03T21:45:09.614Z,67.7
2022-11-03T21:46:53.327Z,67.7
2022-11-03T21:48:37.066Z,67.7
2022-11-03T21:50:20.769Z,67.6
2022-11-03T21:52:04.419Z,67.7
2022-11-03T21:53:48.134Z,67.7
2022-11-03T21:55:31.837Z,67.7
2022-11-03T21:57:15.530Z,67.5
2022-11-03T21:58:59.242Z,67.5
2022-11-03T22:00:42.945Z,67.6
2022-11-03T22:02:26.647Z,67.5
2022-11-03T22:04:10.344Z,67.5
2022-11-03T22:05:54.059Z,67.5
2022-11-03T22:07:37.826Z,67.5
2022-11-03T22:09:21.476Z,67.5
2022-11-03T22:11:05.136Z,67.5
2022-11-03T22:12:48.877Z,67.5
2022-11-03T22:14:32.561Z,67.5
2022-11-03T22:16:16.258Z,67.5
2022-11-03T22:18:00.011Z,67.5
2022-11-03T22:19:43.675Z,67.3
2022-11-03T22:21:27.374Z,67.3
2022-11-03T22:23:11.085Z,67.4
2022-11-03T22:24:54.781Z,67.3
2022-11-03T22:26:38.499Z,67.4
2022-11-03T22:28:22.209Z,67.3
2022-11-03T22:30:05.893Z,67.4
2022-11-03T22:31:49.591Z,67.3
2022-11-03T22:33:33.316Z,67.3
2022-11-03T22:35:16.995Z,67.3
2022-11-03T22:37:00.777Z,67.2
2022-11-03T22:38:44.425Z,67.3
2022-11-03T22:40:28.125Z,67.3
2022-11-03T22:42:11.821Z,67.3
2022-11-03T22:43:55.490Z,67.3
2022-11-03T22:45:39.227Z,67.3
2022-11-03T22:47:22.899Z,67.3
2022-11-03T22:49:06.608Z,67.3
2022-11-03T22:50:50.295Z,67.2
2022-11-03T22:52:34.011Z,67.2
2022-11-03T22:54:17.727Z,67.3
2022-11-03T22:56:01.417Z,67.3
2022-11-03T22:57:45.103Z,67.1
2022-11-03T22:59:28.830Z,67.2
2022-11-03T23:02:56.220Z,67.2
2022-11-03T23:04:39.917Z,67.4
2022-11-03T23:06:23.652Z,67.3
2022-11-03T23:08:07.331Z,67
2022-11-03T23:09:51.040Z,67
2022-11-03T23:11:34.741Z,67.1
2022-11-03T23:13:18.442Z,67.1
2022-11-03T23:15:02.253Z,67.2
2022-11-03T23:16:45.900Z,67.2
2022-11-03T23:18:29.547Z,67.2
2022-11-03T23:20:13.238Z,67.3
2022-11-03T23:21:56.957Z,67.3
2022-11-03T23:23:40.654Z,67.3